Woodville, Ohio
Current Conditions -  °F | °C
As of 12:53 PM on Saturday 20 Dec 2014 (Local Time) from KTDZ Reporting Station
Overcast Overcast  
Wind Chill: 26°   Ceiling: 3000
Heat Index: 31°   Visibility: 10mi
Dew Point: 21°   Wind: 5mph
Humidity: 67%   Direction: 130°SE
Pressure: 30.28"   Gusts: NA
Location:  41.45°N, 83.37°W
Report Text: KTDZ 201753Z AUTO 13004KT 10SM OVC030 M01/M06 A3028 RMK AO2 SLP260 T10061061 10000 21011 58014 TSNO
Loading
Personal Weather Stations






























Interactive Weather Map New forecast layout! Learn more

10-Day Weather Forecast

Advertisements
Track Severe Weather on mobile